sensor_id;sensor_type;location;lat;lon;timestamp;temperature;humidity
27741;DHT22;15134;48.768;9.184;2023-05-29T00:01:23;18.20;94.50
27741;DHT22;15134;48.768;9.184;2023-05-29T00:03:51;18.20;94.60
27741;DHT22;15134;48.768;9.184;2023-05-29T00:06:17;18.20;94.60
27741;DHT22;15134;48.768;9.184;2023-05-29T00:08:43;18.20;94.70
27741;DHT22;15134;48.768;9.184;2023-05-29T00:11:09;18.10;95.30
27741;DHT22;15134;48.768;9.184;2023-05-29T00:13:34;17.90;95.50
27741;DHT22;15134;48.768;9.184;2023-05-29T00:16:00;17.80;95.50
27741;DHT22;15134;48.768;9.184;2023-05-29T00:18:26;17.90;95.90
27741;DHT22;15134;48.768;9.184;2023-05-29T00:20:57;17.90;95.50
27741;DHT22;15134;48.768;9.184;2023-05-29T00:23:23;18.00;95.50
27741;DHT22;15134;48.768;9.184;2023-05-29T00:25:49;18.00;95.50
27741;DHT22;15134;48.768;9.184;2023-05-29T00:28:15;18.00;95.60
27741;DHT22;15134;48.768;9.184;2023-05-29T00:30:41;18.10;95.60
27741;DHT22;15134;48.768;9.184;2023-05-29T00:33:09;18.10;95.70
27741;DHT22;15134;48.768;9.184;2023-05-29T00:35:37;18.10;95.70
27741;DHT22;15134;48.768;9.184;2023-05-29T00:38:03;18.10;95.70
27741;DHT22;15134;48.768;9.184;2023-05-29T00:40:29;18.10;95.80
27741;DHT22;15134;48.768;9.184;2023-05-29T00:42:55;17.90;95.70
27741;DHT22;15134;48.768;9.184;2023-05-29T00:45:21;17.90;95.90
27741;DHT22;15134;48.768;9.184;2023-05-29T00:47:46;17.90;96.00
27741;DHT22;15134;48.768;9.184;2023-05-29T00:50:13;17.90;95.90
27741;DHT22;15134;48.768;9.184;2023-05-29T00:52:41;17.80;96.10
27741;DHT22;15134;48.768;9.184;2023-05-29T00:55:07;17.80;96.10
27741;DHT22;15134;48.768;9.184;2023-05-29T00:57:35;17.70;96.40
27741;DHT22;15134;48.768;9.184;2023-05-29T01:00:02;17.60;96.30
27741;DHT22;15134;48.768;9.184;2023-05-29T01:02:35;17.60;96.40
27741;DHT22;15134;48.768;9.184;2023-05-29T01:05:11;17.60;96.40
27741;DHT22;15134;48.768;9.184;2023-05-29T01:07:37;17.60;96.40
27741;DHT22;15134;48.768;9.184;2023-05-29T01:10:05;17.60;96.60
27741;DHT22;15134;48.768;9.184;2023-05-29T01:15:37;17.60;96.70
27741;DHT22;15134;48.768;9.184;2023-05-29T01:19:31;17.50;96.80
27741;DHT22;15134;48.768;9.184;2023-05-29T01:22:00;17.30;96.80
27741;DHT22;15134;48.768;9.184;2023-05-29T01:24:54;17.40;96.90
27741;DHT22;15134;48.768;9.184;2023-05-29T01:27:24;17.40;97.10
27741;DHT22;15134;48.768;9.184;2023-05-29T01:29:55;17.40;97.00
27741;DHT22;15134;48.768;9.184;2023-05-29T01:32:22;17.40;97.00
27741;DHT22;15134;48.768;9.184;2023-05-29T01:34:48;17.40;97.10
27741;DHT22;15134;48.768;9.184;2023-05-29T01:37:14;17.30;97.30
27741;DHT22;15134;48.768;9.184;2023-05-29T01:39:39;17.20;97.10
27741;DHT22;15134;48.768;9.184;2023-05-29T01:42:06;17.30;97.20
27741;DHT22;15134;48.768;9.184;2023-05-29T01:44:34;17.30;97.20
27741;DHT22;15134;48.768;9.184;2023-05-29T01:47:02;17.20;97.20
27741;DHT22;15134;48.768;9.184;2023-05-29T01:49:28;17.10;97.50
27741;DHT22;15134;48.768;9.184;2023-05-29T01:51:58;17.10;97.50
27741;DHT22;15134;48.768;9.184;2023-05-29T01:54:24;17.20;97.60
27741;DHT22;15134;48.768;9.184;2023-05-29T01:56:50;17.10;97.60
27741;DHT22;15134;48.768;9.184;2023-05-29T01:59:16;17.10;97.30
27741;DHT22;15134;48.768;9.184;2023-05-29T02:01:42;17.10;97.30
27741;DHT22;15134;48.768;9.184;2023-05-29T02:04:13;17.10;97.40
27741;DHT22;15134;48.768;9.184;2023-05-29T02:06:39;17.00;97.60
27741;DHT22;15134;48.768;9.184;2023-05-29T02:09:05;16.90;97.90
27741;DHT22;15134;48.768;9.184;2023-05-29T02:11:32;16.90;98.00
27741;DHT22;15134;48.768;9.184;2023-05-29T02:13:58;16.90;98.00
27741;DHT22;15134;48.768;9.184;2023-05-29T02:16:27;16.90;98.00
27741;DHT22;15134;48.768;9.184;2023-05-29T02:21:19;16.80;99.90
27741;DHT22;15134;48.768;9.184;2023-05-29T02:23:45;16.80;99.90
27741;DHT22;15134;48.768;9.184;2023-05-29T02:26:12;16.80;99.90
27741;DHT22;15134;48.768;9.184;2023-05-29T02:28:39;16.80;99.90
27741;DHT22;15134;48.768;9.184;2023-05-29T02:31:05;16.80;99.90
27741;DHT22;15134;48.768;9.184;2023-05-29T02:33:31;16.90;99.90
27741;DHT22;15134;48.768;9.184;2023-05-29T02:35:57;16.80;99.90
27741;DHT22;15134;48.768;9.184;2023-05-29T02:38:23;16.90;99.90
27741;DHT22;15134;48.768;9.184;2023-05-29T02:40:49;16.80;99.90
27741;DHT22;15134;48.768;9.184;2023-05-29T02:43:14;16.90;99.90
27741;DHT22;15134;48.768;9.184;2023-05-29T02:45:40;16.90;99.90
27741;DHT22;15134;48.768;9.184;2023-05-29T02:48:06;16.60;99.90
27741;DHT22;15134;48.768;9.184;2023-05-29T02:50:33;16.50;99.90
27741;DHT22;15134;48.768;9.184;2023-05-29T02:52:58;16.60;99.90
27741;DHT22;15134;48.768;9.184;2023-05-29T02:55:24;16.60;99.90
27741;DHT22;15134;48.768;9.184;2023-05-29T02:57:50;16.70;99.90
27741;DHT22;15134;48.768;9.184;2023-05-29T03:00:19;16.70;99.90
27741;DHT22;15134;48.768;9.184;2023-05-29T03:02:44;16.70;99.90
27741;DHT22;15134;48.768;9.184;2023-05-29T03:05:11;16.70;99.90
27741;DHT22;15134;48.768;9.184;2023-05-29T03:07:37;16.60;99.90
27741;DHT22;15134;48.768;9.184;2023-05-29T03:10:06;16.60;99.90
27741;DHT22;15134;48.768;9.184;2023-05-29T03:12:32;16.60;99.90
27741;DHT22;15134;48.768;9.184;2023-05-29T03:14:58;16.60;99.90
27741;DHT22;15134;48.768;9.184;2023-05-29T03:17:26;16.60;99.90
27741;DHT22;15134;48.768;9.184;2023-05-29T03:19:52;16.70;99.90
27741;DHT22;15134;48.768;9.184;2023-05-29T03:22:18;16.70;99.90
27741;DHT22;15134;48.768;9.184;2023-05-29T03:24:43;16.60;99.90
27741;DHT22;15134;48.768;9.184;2023-05-29T03:27:09;16.50;99.90
27741;DHT22;15134;48.768;9.184;2023-05-29T03:29:44;16.40;99.90
27741;DHT22;15134;48.768;9.184;2023-05-29T03:32:10;16.40;99.90
27741;DHT22;15134;48.768;9.184;2023-05-29T03:34:37;16.50;99.90
27741;DHT22;15134;48.768;9.184;2023-05-29T03:37:04;16.50;99.90
27741;DHT22;15134;48.768;9.184;2023-05-29T03:39:31;16.50;99.90
27741;DHT22;15134;48.768;9.184;2023-05-29T03:41:57;16.40;99.90
27741;DHT22;15134;48.768;9.184;2023-05-29T03:44:23;16.40;99.90
27741;DHT22;15134;48.768;9.184;2023-05-29T03:46:50;16.50;99.90
27741;DHT22;15134;48.768;9.184;2023-05-29T03:49:16;16.40;99.90
27741;DHT22;15134;48.768;9.184;2023-05-29T03:51:42;16.20;99.90
27741;DHT22;15134;48.768;9.184;2023-05-29T03:54:08;16.30;99.90
27741;DHT22;15134;48.768;9.184;2023-05-29T03:56:37;16.20;99.90
27741;DHT22;15134;48.768;9.184;2023-05-29T03:59:05;16.10;99.90
27741;DHT22;15134;48.768;9.184;2023-05-29T04:01:34;16.00;99.90
27741;DHT22;15134;48.768;9.184;2023-05-29T04:04:01;15.90;99.90
27741;DHT22;15134;48.768;9.184;2023-05-29T04:06:28;16.00;99.90
27741;DHT22;15134;48.768;9.184;2023-05-29T04:08:56;16.10;99.90
27741;DHT22;15134;48.768;9.184;2023-05-29T04:11:21;16.10;99.90
27741;DHT22;15134;48.768;9.184;2023-05-29T04:13:50;16.10;99.90
27741;DHT22;15134;48.768;9.184;2023-05-29T04:16:15;16.00;99.90
27741;DHT22;15134;48.768;9.184;2023-05-29T04:18:41;16.10;99.90
27741;DHT22;15134;48.768;9.184;2023-05-29T04:21:07;16.10;99.90
27741;DHT22;15134;48.768;9.184;2023-05-29T04:23:33;16.10;99.90
27741;DHT22;15134;48.768;9.184;2023-05-29T04:25:59;16.10;99.90
27741;DHT22;15134;48.768;9.184;2023-05-29T04:28:27;16.10;99.90
27741;DHT22;15134;48.768;9.184;2023-05-29T04:30:54;16.10;99.90
27741;DHT22;15134;48.768;9.184;2023-05-29T04:33:22;16.10;99.90
27741;DHT22;15134;48.768;9.184;2023-05-29T04:35:50;16.10;99.90
27741;DHT22;15134;48.768;9.184;2023-05-29T04:38:16;16.10;99.90
27741;DHT22;15134;48.768;9.184;2023-05-29T04:40:43;16.10;99.90
27741;DHT22;15134;48.768;9.184;2023-05-29T04:43:11;16.20;99.90
27741;DHT22;15134;48.768;9.184;2023-05-29T04:45:55;16.30;99.90
27741;DHT22;15134;48.768;9.184;2023-05-29T04:48:22;16.40;99.90
27741;DHT22;15134;48.768;9.184;2023-05-29T04:50:47;16.40;99.90
27741;DHT22;15134;48.768;9.184;2023-05-29T04:53:17;16.50;99.90
27741;DHT22;15134;48.768;9.184;2023-05-29T04:55:43;16.70;99.90
27741;DHT22;15134;48.768;9.184;2023-05-29T04:58:09;16.80;99.90
27741;DHT22;15134;48.768;9.184;2023-05-29T05:00:38;17.00;99.90
27741;DHT22;15134;48.768;9.184;2023-05-29T05:03:04;17.40;99.90
27741;DHT22;15134;48.768;9.184;2023-05-29T05:05:29;17.60;99.90
27741;DHT22;15134;48.768;9.184;2023-05-29T05:07:58;17.90;99.60
27741;DHT22;15134;48.768;9.184;2023-05-29T05:10:29;18.10;99.90
27741;DHT22;15134;48.768;9.184;2023-05-29T05:12:56;18.40;99.70
27741;DHT22;15134;48.768;9.184;2023-05-29T05:15:22;18.60;99.50
27741;DHT22;15134;48.768;9.184;2023-05-29T05:17:47;18.80;99.10
27741;DHT22;15134;48.768;9.184;2023-05-29T05:20:13;19.00;98.70
27741;DHT22;15134;48.768;9.184;2023-05-29T05:22:40;19.20;98.40
27741;DHT22;15134;48.768;9.184;2023-05-29T05:25:08;19.40;97.50
27741;DHT22;15134;48.768;9.184;2023-05-29T05:27:33;19.50;97.40
27741;DHT22;15134;48.768;9.184;2023-05-29T05:30:03;19.70;97.40
27741;DHT22;15134;48.768;9.184;2023-05-29T05:32:31;19.80;96.80
27741;DHT22;15134;48.768;9.184;2023-05-29T05:35:07;19.90;96.80
27741;DHT22;15134;48.768;9.184;2023-05-29T05:37:36;20.20;97.10
27741;DHT22;15134;48.768;9.184;2023-05-29T05:40:02;20.40;96.30
27741;DHT22;15134;48.768;9.184;2023-05-29T05:42:31;20.50;96.20
27741;DHT22;15134;48.768;9.184;2023-05-29T05:45:07;20.60;95.80
27741;DHT22;15134;48.768;9.184;2023-05-29T05:47:33;20.80;96.00
27741;DHT22;15134;48.768;9.184;2023-05-29T05:50:05;21.00;95.40
27741;DHT22;15134;48.768;9.184;2023-05-29T05:52:40;21.20;95.10
27741;DHT22;15134;48.768;9.184;2023-05-29T05:55:06;21.30;95.00
27741;DHT22;15134;48.768;9.184;2023-05-29T05:57:35;21.50;94.70
27741;DHT22;15134;48.768;9.184;2023-05-29T06:00:03;21.70;94.50
27741;DHT22;15134;48.768;9.184;2023-05-29T06:02:41;21.80;94.00
27741;DHT22;15134;48.768;9.184;2023-05-29T06:05:08;22.00;94.00
27741;DHT22;15134;48.768;9.184;2023-05-29T06:07:35;22.20;93.60
27741;DHT22;15134;48.768;9.184;2023-05-29T06:10:02;22.30;93.00
27741;DHT22;15134;48.768;9.184;2023-05-29T06:12:27;22.40;93.30
27741;DHT22;15134;48.768;9.184;2023-05-29T06:15:01;22.50;93.30
27741;DHT22;15134;48.768;9.184;2023-05-29T06:17:29;22.70;92.60
27741;DHT22;15134;48.768;9.184;2023-05-29T06:19:55;22.80;92.70
27741;DHT22;15134;48.768;9.184;2023-05-29T06:22:21;22.90;92.30
27741;DHT22;15134;48.768;9.184;2023-05-29T06:24:47;23.00;92.30
27741;DHT22;15134;48.768;9.184;2023-05-29T06:27:13;23.10;92.00
27741;DHT22;15134;48.768;9.184;2023-05-29T06:29:41;23.20;91.50
27741;DHT22;15134;48.768;9.184;2023-05-29T06:32:07;23.30;91.70
27741;DHT22;15134;48.768;9.184;2023-05-29T06:34:33;23.40;91.30
27741;DHT22;15134;48.768;9.184;2023-05-29T06:37:02;23.40;91.70
27741;DHT22;15134;48.768;9.184;2023-05-29T06:39:30;23.50;91.70
27741;DHT22;15134;48.768;9.184;2023-05-29T06:41:57;23.70;91.00
27741;DHT22;15134;48.768;9.184;2023-05-29T06:44:23;23.90;90.80
27741;DHT22;15134;48.768;9.184;2023-05-29T06:46:49;23.90;90.50
27741;DHT22;15134;48.768;9.184;2023-05-29T06:49:16;24.10;90.90
27741;DHT22;15134;48.768;9.184;2023-05-29T06:51:42;24.30;90.90
27741;DHT22;15134;48.768;9.184;2023-05-29T06:54:28;24.50;90.80
27741;DHT22;15134;48.768;9.184;2023-05-29T06:56:55;24.80;90.40
27741;DHT22;15134;48.768;9.184;2023-05-29T06:59:28;25.00;90.00
27741;DHT22;15134;48.768;9.184;2023-05-29T07:01:54;25.10;89.90
27741;DHT22;15134;48.768;9.184;2023-05-29T07:04:19;25.30;87.90
27741;DHT22;15134;48.768;9.184;2023-05-29T07:06:46;25.20;87.20
27741;DHT22;15134;48.768;9.184;2023-05-29T07:09:12;25.30;86.70
27741;DHT22;15134;48.768;9.184;2023-05-29T07:11:38;25.40;87.80
27741;DHT22;15134;48.768;9.184;2023-05-29T07:14:05;25.60;86.80
27741;DHT22;15134;48.768;9.184;2023-05-29T07:16:32;25.60;87.20
27741;DHT22;15134;48.768;9.184;2023-05-29T07:19:02;25.50;88.20
27741;DHT22;15134;48.768;9.184;2023-05-29T07:21:30;25.50;87.00
27741;DHT22;15134;48.768;9.184;2023-05-29T07:23:56;25.50;87.30
27741;DHT22;15134;48.768;9.184;2023-05-29T07:26:22;25.70;87.40
27741;DHT22;15134;48.768;9.184;2023-05-29T07:28:50;26.00;87.20
27741;DHT22;15134;48.768;9.184;2023-05-29T07:31:16;26.10;86.50
27741;DHT22;15134;48.768;9.184;2023-05-29T07:33:42;26.10;86.60
27741;DHT22;15134;48.768;9.184;2023-05-29T07:36:08;26.40;87.60
27741;DHT22;15134;48.768;9.184;2023-05-29T07:38:34;26.60;85.90
27741;DHT22;15134;48.768;9.184;2023-05-29T07:41:00;26.80;86.10
27741;DHT22;15134;48.768;9.184;2023-05-29T07:43:35;26.90;84.90
27741;DHT22;15134;48.768;9.184;2023-05-29T07:46:04;27.00;84.50
27741;DHT22;15134;48.768;9.184;2023-05-29T07:48:30;27.20;83.40
27741;DHT22;15134;48.768;9.184;2023-05-29T07:50:57;27.50;83.60
27741;DHT22;15134;48.768;9.184;2023-05-29T07:53:25;27.80;82.70
27741;DHT22;15134;48.768;9.184;2023-05-29T07:55:51;28.00;82.80
27741;DHT22;15134;48.768;9.184;2023-05-29T07:58:17;28.30;82.00
27741;DHT22;15134;48.768;9.184;2023-05-29T08:00:44;28.40;80.50
27741;DHT22;15134;48.768;9.184;2023-05-29T08:03:10;28.60;80.20
27741;DHT22;15134;48.768;9.184;2023-05-29T08:05:56;28.80;79.40
27741;DHT22;15134;48.768;9.184;2023-05-29T08:08:22;29.10;79.80
27741;DHT22;15134;48.768;9.184;2023-05-29T08:10:47;29.70;78.80
27741;DHT22;15134;48.768;9.184;2023-05-29T08:13:13;30.20;77.80
27741;DHT22;15134;48.768;9.184;2023-05-29T08:15:40;30.20;74.90
27741;DHT22;15134;48.768;9.184;2023-05-29T08:18:08;30.30;74.80
27741;DHT22;15134;48.768;9.184;2023-05-29T08:20:34;30.20;74.50
27741;DHT22;15134;48.768;9.184;2023-05-29T08:23:00;30.20;75.40
27741;DHT22;15134;48.768;9.184;2023-05-29T08:25:26;30.40;75.40
27741;DHT22;15134;48.768;9.184;2023-05-29T08:27:51;30.80;75.20
27741;DHT22;15134;48.768;9.184;2023-05-29T08:30:17;31.30;74.00
27741;DHT22;15134;48.768;9.184;2023-05-29T08:32:43;31.70;73.40
27741;DHT22;15134;48.768;9.184;2023-05-29T08:35:09;32.00;71.20
27741;DHT22;15134;48.768;9.184;2023-05-29T08:37:38;32.20;71.10
27741;DHT22;15134;48.768;9.184;2023-05-29T08:40:04;32.50;70.50
27741;DHT22;15134;48.768;9.184;2023-05-29T08:42:36;33.00;70.40
27741;DHT22;15134;48.768;9.184;2023-05-29T08:45:09;33.80;69.20
27741;DHT22;15134;48.768;9.184;2023-05-29T08:47:40;34.80;68.30
27741;DHT22;15134;48.768;9.184;2023-05-29T08:50:10;35.20;66.60
27741;DHT22;15134;48.768;9.184;2023-05-29T08:52:40;34.50;65.70
27741;DHT22;15134;48.768;9.184;2023-05-29T08:55:06;34.20;66.90
27741;DHT22;15134;48.768;9.184;2023-05-29T08:57:33;34.20;68.30
27741;DHT22;15134;48.768;9.184;2023-05-29T09:00:00;35.00;67.10
27741;DHT22;15134;48.768;9.184;2023-05-29T09:02:26;35.30;66.50
27741;DHT22;15134;48.768;9.184;2023-05-29T09:04:55;36.50;66.20
27741;DHT22;15134;48.768;9.184;2023-05-29T09:07:22;37.40;64.10
27741;DHT22;15134;48.768;9.184;2023-05-29T09:09:50;38.40;70.60
27741;DHT22;15134;48.768;9.184;2023-05-29T09:12:18;39.00;66.20
27741;DHT22;15134;48.768;9.184;2023-05-29T09:14:45;39.00;62.90
27741;DHT22;15134;48.768;9.184;2023-05-29T09:17:12;38.90;61.00
27741;DHT22;15134;48.768;9.184;2023-05-29T09:19:38;39.20;60.50
27741;DHT22;15134;48.768;9.184;2023-05-29T09:22:09;39.70;59.50
27741;DHT22;15134;48.768;9.184;2023-05-29T09:24:48;40.20;58.30
27741;DHT22;15134;48.768;9.184;2023-05-29T09:27:14;40.80;58.20
27741;DHT22;15134;48.768;9.184;2023-05-29T09:29:41;41.10;57.20
27741;DHT22;15134;48.768;9.184;2023-05-29T09:32:19;41.30;57.30
27741;DHT22;15134;48.768;9.184;2023-05-29T09:34:45;41.40;56.70
27741;DHT22;15134;48.768;9.184;2023-05-29T09:37:11;41.20;56.40
27741;DHT22;15134;48.768;9.184;2023-05-29T09:39:48;41.40;56.70
27741;DHT22;15134;48.768;9.184;2023-05-29T09:42:17;41.30;56.20
27741;DHT22;15134;48.768;9.184;2023-05-29T09:44:50;41.20;56.20
27741;DHT22;15134;48.768;9.184;2023-05-29T09:47:19;40.60;55.80
27741;DHT22;15134;48.768;9.184;2023-05-29T09:49:48;39.40;56.50
27741;DHT22;15134;48.768;9.184;2023-05-29T09:52:15;38.10;57.50
27741;DHT22;15134;48.768;9.184;2023-05-29T09:54:47;36.70;59.20
27741;DHT22;15134;48.768;9.184;2023-05-29T09:57:14;34.70;61.90
27741;DHT22;15134;48.768;9.184;2023-05-29T09:59:49;33.20;64.60
27741;DHT22;15134;48.768;9.184;2023-05-29T10:02:17;31.70;67.50
27741;DHT22;15134;48.768;9.184;2023-05-29T10:04:49;30.70;69.20
27741;DHT22;15134;48.768;9.184;2023-05-29T10:07:27;29.90;71.20
27741;DHT22;15134;48.768;9.184;2023-05-29T10:10:04;29.30;72.40
27741;DHT22;15134;48.768;9.184;2023-05-29T10:12:38;28.40;72.70
27741;DHT22;15134;48.768;9.184;2023-05-29T10:15:14;28.20;74.60
27741;DHT22;15134;48.768;9.184;2023-05-29T10:17:53;28.20;74.80
27741;DHT22;15134;48.768;9.184;2023-05-29T10:20:22;28.10;75.20
27741;DHT22;15134;48.768;9.184;2023-05-29T10:22:51;28.00;74.90
27741;DHT22;15134;48.768;9.184;2023-05-29T10:25:24;28.00;75.20
27741;DHT22;15134;48.768;9.184;2023-05-29T10:27:53;28.00;74.20
27741;DHT22;15134;48.768;9.184;2023-05-29T10:30:45;27.80;73.40
27741;DHT22;15134;48.768;9.184;2023-05-29T10:36:22;27.40;73.10
27741;DHT22;15134;48.768;9.184;2023-05-29T10:38:53;27.00;72.80
27741;DHT22;15134;48.768;9.184;2023-05-29T10:43:54;26.30;74.40
27741;DHT22;15134;48.768;9.184;2023-05-29T10:49:18;25.90;74.90
27741;DHT22;15134;48.768;9.184;2023-05-29T10:51:45;26.00;75.00
27741;DHT22;15134;48.768;9.184;2023-05-29T10:54:10;25.90;75.10
27741;DHT22;15134;48.768;9.184;2023-05-29T10:56:36;25.80;74.50
27741;DHT22;15134;48.768;9.184;2023-05-29T10:59:02;25.60;74.30
27741;DHT22;15134;48.768;9.184;2023-05-29T11:01:29;25.50;74.20
27741;DHT22;15134;48.768;9.184;2023-05-29T11:06:43;25.50;75.80
27741;DHT22;15134;48.768;9.184;2023-05-29T11:12:25;25.70;75.30
27741;DHT22;15134;48.768;9.184;2023-05-29T11:15:14;25.60;75.10
27741;DHT22;15134;48.768;9.184;2023-05-29T11:17:44;25.50;75.90
27741;DHT22;15134;48.768;9.184;2023-05-29T11:20:36;25.50;75.20
27741;DHT22;15134;48.768;9.184;2023-05-29T11:23:05;25.50;76.20
27741;DHT22;15134;48.768;9.184;2023-05-29T11:25:35;25.70;75.10
27741;DHT22;15134;48.768;9.184;2023-05-29T11:28:03;25.70;75.40
27741;DHT22;15134;48.768;9.184;2023-05-29T11:30:30;25.70;74.90
27741;DHT22;15134;48.768;9.184;2023-05-29T11:33:02;25.70;74.60
27741;DHT22;15134;48.768;9.184;2023-05-29T11:35:32;25.60;75.80
27741;DHT22;15134;48.768;9.184;2023-05-29T11:38:01;25.60;75.30
27741;DHT22;15134;48.768;9.184;2023-05-29T11:40:28;25.60;74.40
27741;DHT22;15134;48.768;9.184;2023-05-29T11:42:56;25.60;74.50
27741;DHT22;15134;48.768;9.184;2023-05-29T11:45:22;25.60;74.40
27741;DHT22;15134;48.768;9.184;2023-05-29T11:48:03;25.50;74.00
27741;DHT22;15134;48.768;9.184;2023-05-29T11:50:36;25.60;74.10
27741;DHT22;15134;48.768;9.184;2023-05-29T11:53:02;25.50;74.50
27741;DHT22;15134;48.768;9.184;2023-05-29T11:55:28;25.50;73.40
27741;DHT22;15134;48.768;9.184;2023-05-29T11:57:58;25.50;72.60
27741;DHT22;15134;48.768;9.184;2023-05-29T12:00:24;25.40;71.80
27741;DHT22;15134;48.768;9.184;2023-05-29T12:02:51;25.40;71.10
27741;DHT22;15134;48.768;9.184;2023-05-29T12:05:17;25.40;71.00
27741;DHT22;15134;48.768;9.184;2023-05-29T12:07:54;25.40;71.50
27741;DHT22;15134;48.768;9.184;2023-05-29T12:10:27;25.40;70.70
27741;DHT22;15134;48.768;9.184;2023-05-29T12:12:55;25.40;71.20
27741;DHT22;15134;48.768;9.184;2023-05-29T12:15:24;25.50;70.80
27741;DHT22;15134;48.768;9.184;2023-05-29T12:17:51;25.50;71.00
27741;DHT22;15134;48.768;9.184;2023-05-29T12:20:18;25.50;71.10
27741;DHT22;15134;48.768;9.184;2023-05-29T12:22:47;25.40;70.90
27741;DHT22;15134;48.768;9.184;2023-05-29T12:25:13;25.40;70.60
27741;DHT22;15134;48.768;9.184;2023-05-29T12:27:41;25.30;71.10
27741;DHT22;15134;48.768;9.184;2023-05-29T12:32:46;25.30;69.90
27741;DHT22;15134;48.768;9.184;2023-05-29T12:35:22;25.20;69.20
27741;DHT22;15134;48.768;9.184;2023-05-29T12:40:26;25.00;69.80
27741;DHT22;15134;48.768;9.184;2023-05-29T12:43:00;25.00;69.50
27741;DHT22;15134;48.768;9.184;2023-05-29T12:45:31;25.00;70.50
27741;DHT22;15134;48.768;9.184;2023-05-29T12:48:02;25.00;69.20
27741;DHT22;15134;48.768;9.184;2023-05-29T12:50:33;24.90;69.30
27741;DHT22;15134;48.768;9.184;2023-05-29T12:53:09;24.80;69.70
27741;DHT22;15134;48.768;9.184;2023-05-29T12:55:40;24.80;70.60
27741;DHT22;15134;48.768;9.184;2023-05-29T12:58:07;24.80;66.90
27741;DHT22;15134;48.768;9.184;2023-05-29T13:00:38;24.80;65.50
27741;DHT22;15134;48.768;9.184;2023-05-29T13:03:04;24.80;65.80
27741;DHT22;15134;48.768;9.184;2023-05-29T13:05:30;24.80;65.90
27741;DHT22;15134;48.768;9.184;2023-05-29T13:07:58;24.90;66.70
27741;DHT22;15134;48.768;9.184;2023-05-29T13:10:25;24.90;66.80
27741;DHT22;15134;48.768;9.184;2023-05-29T13:12:54;24.90;67.10
27741;DHT22;15134;48.768;9.184;2023-05-29T13:15:23;24.90;66.60
27741;DHT22;15134;48.768;9.184;2023-05-29T13:17:49;24.90;66.90
27741;DHT22;15134;48.768;9.184;2023-05-29T13:20:15;24.90;66.70
27741;DHT22;15134;48.768;9.184;2023-05-29T13:22:43;25.00;67.30
27741;DHT22;15134;48.768;9.184;2023-05-29T13:25:11;25.00;66.00
27741;DHT22;15134;48.768;9.184;2023-05-29T13:27:42;25.00;67.20
27741;DHT22;15134;48.768;9.184;2023-05-29T13:30:09;25.00;66.20
27741;DHT22;15134;48.768;9.184;2023-05-29T13:32:35;25.00;65.70
27741;DHT22;15134;48.768;9.184;2023-05-29T13:35:01;24.90;66.10
27741;DHT22;15134;48.768;9.184;2023-05-29T13:37:27;24.90;66.40
27741;DHT22;15134;48.768;9.184;2023-05-29T13:39:54;24.90;66.20
27741;DHT22;15134;48.768;9.184;2023-05-29T13:42:21;24.90;66.60
27741;DHT22;15134;48.768;9.184;2023-05-29T13:44:47;24.90;66.60
27741;DHT22;15134;48.768;9.184;2023-05-29T13:47:13;24.90;66.60
27741;DHT22;15134;48.768;9.184;2023-05-29T13:49:39;24.90;67.00
27741;DHT22;15134;48.768;9.184;2023-05-29T13:52:11;24.90;67.30
27741;DHT22;15134;48.768;9.184;2023-05-29T13:54:36;25.00;68.60
27741;DHT22;15134;48.768;9.184;2023-05-29T13:57:03;25.00;67.70
27741;DHT22;15134;48.768;9.184;2023-05-29T13:59:29;25.00;68.60
27741;DHT22;15134;48.768;9.184;2023-05-29T14:01:55;25.00;67.80
27741;DHT22;15134;48.768;9.184;2023-05-29T14:04:21;25.00;68.10
27741;DHT22;15134;48.768;9.184;2023-05-29T14:06:46;25.00;66.90
27741;DHT22;15134;48.768;9.184;2023-05-29T14:09:12;25.00;67.10
27741;DHT22;15134;48.768;9.184;2023-05-29T14:11:39;25.00;67.30
27741;DHT22;15134;48.768;9.184;2023-05-29T14:14:10;25.00;68.40
27741;DHT22;15134;48.768;9.184;2023-05-29T14:16:36;25.00;69.00
27741;DHT22;15134;48.768;9.184;2023-05-29T14:19:02;25.00;69.30
27741;DHT22;15134;48.768;9.184;2023-05-29T14:21:27;24.90;68.30
27741;DHT22;15134;48.768;9.184;2023-05-29T14:23:55;24.90;67.60
27741;DHT22;15134;48.768;9.184;2023-05-29T14:26:21;24.90;67.80
27741;DHT22;15134;48.768;9.184;2023-05-29T14:28:47;25.00;68.30
27741;DHT22;15134;48.768;9.184;2023-05-29T14:31:13;25.00;68.50
27741;DHT22;15134;48.768;9.184;2023-05-29T14:33:41;25.00;68.20
27741;DHT22;15134;48.768;9.184;2023-05-29T14:36:07;25.00;68.40
27741;DHT22;15134;48.768;9.184;2023-05-29T14:38:35;25.00;68.90
27741;DHT22;15134;48.768;9.184;2023-05-29T14:41:02;25.00;68.10
27741;DHT22;15134;48.768;9.184;2023-05-29T14:43:28;25.00;66.50
27741;DHT22;15134;48.768;9.184;2023-05-29T14:45:53;24.90;66.30
27741;DHT22;15134;48.768;9.184;2023-05-29T14:48:19;25.00;67.20
27741;DHT22;15134;48.768;9.184;2023-05-29T14:50:45;25.00;67.20
27741;DHT22;15134;48.768;9.184;2023-05-29T14:53:10;25.00;67.00
27741;DHT22;15134;48.768;9.184;2023-05-29T14:55:36;25.00;67.50
27741;DHT22;15134;48.768;9.184;2023-05-29T14:58:03;25.00;67.70
27741;DHT22;15134;48.768;9.184;2023-05-29T15:00:29;25.00;66.70
27741;DHT22;15134;48.768;9.184;2023-05-29T15:02:55;25.00;67.50
27741;DHT22;15134;48.768;9.184;2023-05-29T15:05:25;25.00;67.30
27741;DHT22;15134;48.768;9.184;2023-05-29T15:07:51;25.00;68.20
27741;DHT22;15134;48.768;9.184;2023-05-29T15:10:17;25.00;68.60
27741;DHT22;15134;48.768;9.184;2023-05-29T15:12:46;25.00;69.60
27741;DHT22;15134;48.768;9.184;2023-05-29T15:15:12;25.10;69.90
27741;DHT22;15134;48.768;9.184;2023-05-29T15:17:37;25.10;69.30
27741;DHT22;15134;48.768;9.184;2023-05-29T15:20:06;25.10;67.90
27741;DHT22;15134;48.768;9.184;2023-05-29T15:22:32;25.10;68.80
27741;DHT22;15134;48.768;9.184;2023-05-29T15:24:58;25.10;68.50
27741;DHT22;15134;48.768;9.184;2023-05-29T15:27:25;25.10;69.90
27741;DHT22;15134;48.768;9.184;2023-05-29T15:30:08;25.10;70.80
27741;DHT22;15134;48.768;9.184;2023-05-29T15:32:34;25.10;70.70
27741;DHT22;15134;48.768;9.184;2023-05-29T15:35:00;25.00;70.40
27741;DHT22;15134;48.768;9.184;2023-05-29T15:37:25;25.00;71.20
27741;DHT22;15134;48.768;9.184;2023-05-29T15:39:55;24.90;71.30
27741;DHT22;15134;48.768;9.184;2023-05-29T15:42:20;24.90;71.60
27741;DHT22;15134;48.768;9.184;2023-05-29T15:44:47;24.90;71.50
27741;DHT22;15134;48.768;9.184;2023-05-29T15:47:13;24.90;72.20
27741;DHT22;15134;48.768;9.184;2023-05-29T15:49:38;24.90;72.20
27741;DHT22;15134;48.768;9.184;2023-05-29T15:52:04;24.90;72.20
27741;DHT22;15134;48.768;9.184;2023-05-29T15:54:30;24.90;72.20
27741;DHT22;15134;48.768;9.184;2023-05-29T15:56:56;24.80;73.30
27741;DHT22;15134;48.768;9.184;2023-05-29T15:59:22;24.90;72.50
27741;DHT22;15134;48.768;9.184;2023-05-29T16:01:47;24.90;72.70